Briefing drone pour Andrezieux-boutheon

Rechercher une autre localisation

Conditions de vol :


Nous sommes le : Mardi 05 décembre 2023
Il est 06:19 UTC (07:19 LT)

Lever de soleil : 06:40 UTC (07:40 LT)
Coucher de soleil : 16:26 UTC (17:26 LT)

Météo

L'essentiel des conditions de vol

VIGILANCE MÉTÉO FRANCE - Loire (42)
Pas de vigilances particulieres
CARTE TEMSI
CARTES DES FRONTS
METAR de LFMH
LFMH 050600Z AUTO 21009KT 9999 BKN048 OVC054 05/M00 Q1012

Date d'émission: 05/12/2023
Heure d'émission: 06:00 UTC
Vent: 210° pour 9 KT (17 km/h)
Visibilité horizontale: > 10 km
Plafond :
- Nuages morcelés à 4800ft (1463m)
- Couvert à 5400ft (1646m)
Température: 5 °C
Point de rosée: 0 °C
Humidité: 70%
Pression (QNH): 1012 hPa
TAF de LFMH
LFMH 161901Z 1619/1712 CNL

Conditions prévues :

Heure d'émission : Bulletin éffectué le 16 à 19:00 UTC
Prévision : Valide du 16 a 19:00 UTC au 17 a 12:00 UTC
Nuages : à 0ft (0 m)
WEBCAM POUR ANDREZIEUX-BOUTHEON

Réglementation

Voler en sécurité

CARTES AERONAUTIQUE 1/500.000
CARTE AZBA (Reseau basse altitude)
CARTES VAC (LFMH)
SUP AIP




Chargement des AIP...
NOTAM (ANDREZIEUX-BOUTHEON + Terrain à proximité / FIR )




Chargement des NOTAMS...
CONTACT PREFECTURE 42
Loire (42) : [email protected]


Avertissement : Les données mises à disposition sont indicatives. Oxygène Drone ne pourra être tenu responsable de dégâts causés aux biens et aux personnes.